createdAt,value
2022-08-03T13:05:54.378Z,79.50
2022-08-03T13:08:23.899Z,79.60
2022-08-03T13:10:51.576Z,76.90
2022-08-03T13:13:20.905Z,77.90
2022-08-03T13:15:56.964Z,77.80
2022-08-03T13:18:27.226Z,77.40
2022-08-03T13:20:54.343Z,77.30
2022-08-03T13:23:35.065Z,76.70
2022-08-03T13:26:09.575Z,76.40
2022-08-03T13:28:45.751Z,75.90
2022-08-03T13:31:13.798Z,77.00
2022-08-03T13:33:41.404Z,75.70
2022-08-03T13:38:42.697Z,75.90
2022-08-03T13:41:54.905Z,75.10
2022-08-03T13:44:30.941Z,76.00
2022-08-03T13:46:59.694Z,76.30
2022-08-03T13:49:30.877Z,75.20
2022-08-03T13:52:01.810Z,74.00
2022-08-03T13:58:06.292Z,73.80
2022-08-03T13:59:59.336Z,75.30
2022-08-03T14:02:26.881Z,72.30
2022-08-03T14:04:54.970Z,73.90
2022-08-03T14:07:22.035Z,74.10
2022-08-03T14:10:01.072Z,73.40
2022-08-03T14:12:28.828Z,73.50
2022-08-03T14:14:59.590Z,74.00
2022-08-03T14:17:40.748Z,74.40
2022-08-03T14:20:38.761Z,72.60
2022-08-03T14:25:43.578Z,71.80
2022-08-03T14:28:23.078Z,71.30
2022-08-03T14:30:52.095Z,70.20
2022-08-03T14:33:26.552Z,70.80
2022-08-03T14:35:53.653Z,69.70
2022-08-03T14:38:22.070Z,69.60
2022-08-03T14:40:50.854Z,69.10
2022-08-03T14:43:19.331Z,67.80
2022-08-03T14:45:46.552Z,68.10
2022-08-03T14:50:34.711Z,68.60
2022-08-03T14:51:01.235Z,68.40
2022-08-03T14:53:29.082Z,66.70
2022-08-03T14:55:56.276Z,66.80
2022-08-03T14:58:27.714Z,66.70
2022-08-03T15:00:56.084Z,66.60
2022-08-03T15:03:25.081Z,66.70
2022-08-03T15:05:57.139Z,65.70
2022-08-03T15:08:25.804Z,64.40
2022-08-03T15:10:54.540Z,64.40
2022-08-03T15:13:22.320Z,65.20
2022-08-03T15:15:50.157Z,64.20
2022-08-03T15:18:17.178Z,63.40
2022-08-03T15:20:46.278Z,62.90
2022-08-03T15:23:15.623Z,64.20
2022-08-03T15:26:28.360Z,63.50
2022-08-03T15:28:32.478Z,64.60
2022-08-03T15:31:00.001Z,63.20
2022-08-03T15:33:27.099Z,63.70
2022-08-03T15:35:54.763Z,63.50
2022-08-03T15:38:26.232Z,64.00
2022-08-03T15:40:54.795Z,63.70
2022-08-03T15:43:25.188Z,63.00
2022-08-03T15:46:12.787Z,62.30
2022-08-03T15:48:39.669Z,62.40
2022-08-03T15:51:09.209Z,62.20
2022-08-03T15:53:36.825Z,63.00
2022-08-03T15:56:10.009Z,61.70
2022-08-03T15:59:03.385Z,62.60
2022-08-03T16:01:27.102Z,63.70
2022-08-03T16:08:03.179Z,63.80
2022-08-03T16:10:30.795Z,62.10
2022-08-03T16:12:59.085Z,63.00
2022-08-03T16:15:28.299Z,63.00
2022-08-03T16:17:55.533Z,63.40
2022-08-03T16:20:34.190Z,62.90
2022-08-03T16:23:07.016Z,62.20
2022-08-03T16:25:40.350Z,64.00
2022-08-03T16:28:13.597Z,63.20
2022-08-03T16:30:43.151Z,63.10
2022-08-03T16:33:11.389Z,63.20
2022-08-03T16:35:44.253Z,62.90
2022-08-03T16:38:15.214Z,63.10
2022-08-03T16:40:47.156Z,63.60
2022-08-03T16:43:18.194Z,63.30
2022-08-03T16:45:47.120Z,63.30
2022-08-03T16:48:15.480Z,63.70
2022-08-03T16:50:42.567Z,64.00
2022-08-03T16:53:15.528Z,63.90
2022-08-03T16:55:53.200Z,63.70
2022-08-03T16:58:24.381Z,64.00
2022-08-03T17:01:21.542Z,64.00
2022-08-03T17:04:01.698Z,64.00
2022-08-03T17:06:34.456Z,64.20
2022-08-03T17:09:03.205Z,63.60
2022-08-03T17:11:32.122Z,63.80
2022-08-03T17:14:03.516Z,64.10
2022-08-03T17:16:33.549Z,64.00
2022-08-03T17:19:07.659Z,64.40
2022-08-03T17:21:39.053Z,64.80
2022-08-03T17:24:19.660Z,64.70
2022-08-03T17:26:51.129Z,64.80
2022-08-03T17:29:23.097Z,65.60
2022-08-03T17:31:53.090Z,66.40
2022-08-03T17:34:21.775Z,67.10
2022-08-03T17:37:27.191Z,67.50
2022-08-03T17:39:59.914Z,68.00
2022-08-03T17:42:30.798Z,69.40
2022-08-03T17:45:02.585Z,71.10
2022-08-03T17:51:21.271Z,73.40
2022-08-03T17:54:18.377Z,74.50
2022-08-03T17:57:22.484Z,75.40
2022-08-03T18:00:28.706Z,75.80
2022-08-03T18:03:18.674Z,76.30
2022-08-03T18:06:11.822Z,77.00
2022-08-03T18:08:55.271Z,77.50
2022-08-03T18:11:24.127Z,77.50
2022-08-03T18:14:15.957Z,77.40
2022-08-03T18:17:00.707Z,78.00
2022-08-03T18:20:01.896Z,78.80
2022-08-03T18:22:24.996Z,78.80
2022-08-03T18:24:53.026Z,79.30
2022-08-03T18:27:23.126Z,79.80
2022-08-03T18:29:51.448Z,79.70
2022-08-03T18:32:19.031Z,80.00
2022-08-03T18:34:53.800Z,80.00
2022-08-03T18:40:13.437Z,80.20
2022-08-03T18:42:52.890Z,80.10
2022-08-03T18:48:21.274Z,80.50
2022-08-03T18:51:02.448Z,81.20
2022-08-03T18:56:21.158Z,80.50
2022-08-03T18:59:02.827Z,80.60
2022-08-03T19:02:01.044Z,81.00
2022-08-03T19:08:17.071Z,82.10
2022-08-03T19:10:57.554Z,82.90
2022-08-03T19:13:35.952Z,83.10
2022-08-03T19:16:04.521Z,83.90
2022-08-03T19:18:39.087Z,84.10
2022-08-03T19:21:12.594Z,84.20
2022-08-03T19:23:45.932Z,84.40
2022-08-03T19:26:30.244Z,84.20
2022-08-03T19:28:59.503Z,84.30
2022-08-03T19:31:30.793Z,84.50
2022-08-03T19:34:00.639Z,84.60
2022-08-03T19:36:31.684Z,84.70
2022-08-03T19:38:59.320Z,84.80
2022-08-03T19:41:41.722Z,84.60
2022-08-03T19:44:12.445Z,85.00
2022-08-03T19:46:54.560Z,85.10
2022-08-03T19:49:57.749Z,85.40
2022-08-03T19:52:16.039Z,85.70
2022-08-03T19:54:53.861Z,86.10
2022-08-03T19:57:24.474Z,86.10
2022-08-03T19:59:53.414Z,86.70
2022-08-03T20:02:27.268Z,87.40
2022-08-03T20:04:59.975Z,88.10
2022-08-03T20:07:31.014Z,88.30
2022-08-03T20:10:01.409Z,88.10
2022-08-03T20:12:32.139Z,88.00
2022-08-03T20:15:04.467Z,88.10
2022-08-03T20:17:55.584Z,88.90
2022-08-03T20:20:23.551Z,90.10
2022-08-03T20:22:57.684Z,90.40
2022-08-03T20:25:38.681Z,90.80
2022-08-03T20:28:17.166Z,90.90
2022-08-03T20:30:46.316Z,90.80
2022-08-03T20:33:18.340Z,90.60
2022-08-03T20:35:48.988Z,90.70
2022-08-03T20:38:18.457Z,91.00
2022-08-03T20:40:47.801Z,91.40
2022-08-03T20:43:16.271Z,90.70
2022-08-03T20:46:00.267Z,90.60
2022-08-03T20:48:31.354Z,90.40
2022-08-03T20:50:58.843Z,90.50
2022-08-03T20:56:15.049Z,90.20
2022-08-03T20:58:43.166Z,90.10
2022-08-03T21:01:18.230Z,90.10
2022-08-03T21:03:55.617Z,90.60
2022-08-03T21:06:53.415Z,90.50
2022-08-03T21:09:40.116Z,90.90
2022-08-03T21:12:15.486Z,90.90
2022-08-03T21:12:58.651Z,79.80
2022-08-03T21:13:04.991Z,80.30
2022-08-03T21:13:08.414Z,80.20
2022-08-03T21:13:12.190Z,90.40
2022-08-03T21:14:57.297Z,91.00
2022-08-03T21:21:03.010Z,91.00
2022-08-03T21:23:39.854Z,91.60
2022-08-03T21:26:16.847Z,91.80
2022-08-03T21:28:45.757Z,92.40
2022-08-03T21:31:14.217Z,92.70
2022-08-03T21:33:47.454Z,93.20
2022-08-03T21:36:15.319Z,93.40
2022-08-03T21:38:43.905Z,93.50
2022-08-03T21:41:14.768Z,93.70
2022-08-03T21:43:41.958Z,94.00
2022-08-03T21:46:12.308Z,94.20
2022-08-03T21:48:41.736Z,94.40
2022-08-03T21:51:12.306Z,94.60
2022-08-03T21:54:03.173Z,94.70
2022-08-03T21:56:29.763Z,94.90
2022-08-03T21:59:02.834Z,94.90
2022-08-03T22:01:35.342Z,94.70
2022-08-03T22:04:07.175Z,94.60
2022-08-03T22:06:36.705Z,94.70
2022-08-03T22:09:06.448Z,94.60
2022-08-03T22:11:36.574Z,94.50
2022-08-03T22:14:03.843Z,94.40
2022-08-03T22:16:31.530Z,94.30
2022-08-03T22:18:58.565Z,94.30
2022-08-03T22:25:06.239Z,94.10
2022-08-03T22:27:41.337Z,94.20
2022-08-03T22:30:17.247Z,94.20
2022-08-03T22:32:45.326Z,94.20
2022-08-03T22:35:14.430Z,94.30
2022-08-03T22:37:42.093Z,94.30
2022-08-03T22:40:12.517Z,94.30
2022-08-03T22:42:47.131Z,94.20
2022-08-03T22:45:45.831Z,94.30
2022-08-03T22:48:02.101Z,94.20
2022-08-03T22:50:31.691Z,94.20
2022-08-03T22:53:00.132Z,94.30
2022-08-03T22:55:27.818Z,94.20
2022-08-03T22:57:56.074Z,94.40
2022-08-03T23:00:24.842Z,94.40
2022-08-03T23:02:54.011Z,94.30
2022-08-03T23:06:02.233Z,94.40
2022-08-03T23:08:15.855Z,94.40
2022-08-03T23:10:47.330Z,94.50
2022-08-03T23:13:17.703Z,94.50
2022-08-03T23:15:58.239Z,94.50
2022-08-03T23:18:32.015Z,94.40
2022-08-03T23:21:05.960Z,94.50
2022-08-03T23:23:44.155Z,94.50
2022-08-03T23:26:17.273Z,94.70
2022-08-03T23:28:47.713Z,94.70
2022-08-03T23:31:15.755Z,94.70
2022-08-03T23:33:45.507Z,94.70
2022-08-03T23:36:30.904Z,94.70
2022-08-03T23:39:02.262Z,94.80
2022-08-03T23:41:31.119Z,94.90
2022-08-03T23:44:01.004Z,94.90
2022-08-03T23:46:30.559Z,94.80
2022-08-03T23:48:58.734Z,94.90
2022-08-03T23:51:48.138Z,94.90
2022-08-03T23:54:27.569Z,94.90
2022-08-03T23:57:11.728Z,94.90
2022-08-03T23:59:44.442Z,94.90
